Time,TemperatureF,DewpointF,PressureIn,WindDirection,WindDirectionDegrees,WindSpeedMPH,WindSpeedGustMPH,Humidity,HourlyPrecipIn,Conditions,Clouds,dailyrainin,SoftwareType,DateUTC
2013-05-12 00:02:00,55.0,44.0,30.23,ENE,78,0.0,0.0,66,0.00,,,0.00,,2013-05-12 05:02:00,
2013-05-12 00:12:00,55.0,44.0,30.23,ENE,78,0.0,0.0,66,0.00,,,0.00,,2013-05-12 05:12:00,
2013-05-12 00:22:00,55.0,43.0,30.23,ENE,75,0.0,0.0,65,0.00,,,0.00,,2013-05-12 05:22:00,
2013-05-12 00:32:00,55.0,43.0,30.23,ENE,75,0.0,0.0,65,0.00,,,0.00,,2013-05-12 05:32:00,
2013-05-12 00:42:00,55.0,43.0,30.23,ENE,75,0.0,0.0,65,0.00,,,0.00,,2013-05-12 05:42:00,
2013-05-12 00:52:00,54.0,44.0,30.24,ENE,75,0.0,0.0,68,0.00,,,0.00,,2013-05-12 05:52:00,
2013-05-12 01:01:00,54.0,44.0,30.24,ENE,75,0.0,0.0,68,0.00,,,0.00,,2013-05-12 06:01:00,
2013-05-12 01:11:00,54.0,44.0,30.24,ENE,75,0.0,0.0,68,0.00,,,0.00,,2013-05-12 06:11:00,
2013-05-12 01:21:00,54.0,43.0,30.24,ENE,75,0.0,0.0,67,0.00,,,0.00,,2013-05-12 06:21:00,
2013-05-12 01:32:00,54.0,43.0,30.24,ENE,75,0.0,0.0,67,0.00,,,0.00,,2013-05-12 06:32:00,
2013-05-12 01:42:00,54.0,43.0,30.22,ENE,75,0.0,0.0,67,0.00,,,0.00,,2013-05-12 06:42:00,
2013-05-12 01:52:00,54.0,43.0,30.22,ENE,75,0.0,0.0,67,0.00,,,0.00,,2013-05-12 06:52:00,
2013-05-12 02:01:00,54.0,43.0,30.22,ENE,75,0.0,0.0,67,0.00,,,0.00,,2013-05-12 07:01:00,
2013-05-12 02:11:00,54.0,43.0,30.22,ENE,75,0.0,0.0,67,0.00,,,0.00,,2013-05-12 07:11:00,
2013-05-12 02:21:00,54.0,42.0,30.21,East,92,0.0,0.0,64,0.00,,,0.00,,2013-05-12 07:21:00,
2013-05-12 02:32:00,54.0,42.0,30.21,East,92,0.0,0.0,64,0.00,,,0.00,,2013-05-12 07:32:00,
2013-05-12 02:42:00,54.0,42.0,30.21,East,92,0.0,0.0,64,0.00,,,0.00,,2013-05-12 07:42:00,
2013-05-12 02:52:00,54.0,41.0,30.17,ESE,113,0.0,6.0,62,0.00,,,0.00,,2013-05-12 07:52:00,
2013-05-12 03:02:00,54.0,41.0,30.17,ESE,113,0.0,6.0,62,0.00,,,0.00,,2013-05-12 08:02:00,
2013-05-12 03:11:00,54.0,41.0,30.17,ESE,113,0.0,6.0,62,0.00,,,0.00,,2013-05-12 08:11:00,
2013-05-12 03:21:00,55.0,41.0,30.17,ENE,76,0.0,3.0,59,0.00,,,0.00,,2013-05-12 08:21:00,
2013-05-12 03:32:00,55.0,41.0,30.17,ENE,76,0.0,3.0,59,0.00,,,0.00,,2013-05-12 08:32:00,
2013-05-12 03:42:00,55.0,41.0,30.17,ENE,76,0.0,3.0,59,0.00,,,0.00,,2013-05-12 08:42:00,
2013-05-12 03:53:00,55.0,41.0,30.19,NNE,14,0.0,7.0,60,0.00,,,0.00,,2013-05-12 08:53:00,
2013-05-12 04:01:00,55.0,41.0,30.19,NNE,14,0.0,7.0,60,0.00,,,0.00,,2013-05-12 09:01:00,
2013-05-12 04:11:00,55.0,41.0,30.19,NNE,14,0.0,7.0,60,0.00,,,0.00,,2013-05-12 09:11:00,
2013-05-12 04:21:00,54.0,41.0,30.19,NNE,16,0.0,0.0,61,0.00,,,0.00,,2013-05-12 09:21:00,
2013-05-12 04:33:00,54.0,41.0,30.19,NNE,16,0.0,0.0,61,0.00,,,0.00,,2013-05-12 09:33:00,
2013-05-12 04:43:00,54.0,41.0,30.19,NNE,16,0.0,0.0,61,0.00,,,0.00,,2013-05-12 09:43:00,
2013-05-12 04:53:00,53.0,41.0,30.19,NNE,16,0.0,0.0,64,0.00,,,0.00,,2013-05-12 09:53:00,
2013-05-12 05:03:00,53.0,41.0,30.19,NNE,16,0.0,0.0,64,0.00,,,0.00,,2013-05-12 10:03:00,
2013-05-12 05:12:00,53.0,41.0,30.19,NNE,16,0.0,0.0,64,0.00,,,0.00,,2013-05-12 10:12:00,
2013-05-12 05:22:00,52.0,41.0,30.20,NNE,16,0.0,0.0,67,0.00,,,0.00,,2013-05-12 10:22:00,
2013-05-12 05:33:00,52.0,41.0,30.20,NNE,16,0.0,0.0,67,0.00,,,0.00,,2013-05-12 10:33:00,
2013-05-12 05:42:00,52.0,41.0,30.20,NNE,16,0.0,0.0,67,0.00,,,0.00,,2013-05-12 10:42:00,
2013-05-12 05:52:00,50.0,41.0,30.22,NNE,16,0.0,0.0,72,0.00,,,0.00,,2013-05-12 10:52:00,
2013-05-12 06:02:00,50.0,41.0,30.22,NNE,16,0.0,0.0,72,0.00,,,0.00,,2013-05-12 11:02:00,
2013-05-12 06:12:00,50.0,41.0,30.22,NNE,16,0.0,0.0,72,0.00,,,0.00,,2013-05-12 11:12:00,
2013-05-12 06:22:00,48.0,40.0,30.21,NNE,16,0.0,0.0,73,0.00,,,0.00,,2013-05-12 11:22:00,
2013-05-12 06:32:00,48.0,40.0,30.21,NNE,16,0.0,0.0,73,0.00,,,0.00,,2013-05-12 11:32:00,
2013-05-12 06:42:00,48.0,40.0,30.20,NNE,16,0.0,0.0,75,0.00,,,0.00,,2013-05-12 11:42:00,
2013-05-12 06:52:00,48.0,40.0,30.20,NNE,16,0.0,0.0,75,0.00,,,0.00,,2013-05-12 11:52:00,
2013-05-12 07:01:00,48.0,40.0,30.20,NNE,16,0.0,0.0,75,0.00,,,0.00,,2013-05-12 12:01:00,
2013-05-12 07:11:00,47.0,40.0,30.21,NNE,16,0.0,0.0,77,0.00,,,0.00,,2013-05-12 12:11:00,
2013-05-12 07:21:00,47.0,40.0,30.21,NNE,16,0.0,0.0,77,0.00,,,0.00,,2013-05-12 12:21:00,
2013-05-12 07:32:00,47.0,40.0,30.21,NNE,16,0.0,0.0,77,0.00,,,0.00,,2013-05-12 12:32:00,
2013-05-12 07:42:00,47.0,40.0,30.21,NNE,16,0.0,0.0,77,0.00,,,0.00,,2013-05-12 12:42:00,
2013-05-12 07:52:00,47.0,41.0,30.20,NNE,14,0.0,0.0,78,0.00,,,0.00,,2013-05-12 12:52:00,
2013-05-12 08:01:00,47.0,41.0,30.20,NNE,14,0.0,0.0,78,0.00,,,0.00,,2013-05-12 13:01:00,
2013-05-12 08:11:00,47.0,41.0,30.20,NNE,14,0.0,0.0,78,0.00,,,0.00,,2013-05-12 13:11:00,
2013-05-12 08:21:00,47.0,40.0,30.21,NNE,14,0.0,0.0,76,0.00,,,0.00,,2013-05-12 13:21:00,
2013-05-12 08:32:00,47.0,40.0,30.21,NNE,14,0.0,0.0,76,0.00,,,0.00,,2013-05-12 13:32:00,
2013-05-12 08:42:00,47.0,40.0,30.21,NNE,14,0.0,0.0,76,0.00,,,0.00,,2013-05-12 13:42:00,
2013-05-12 08:52:00,50.0,41.0,30.24,NNE,14,0.0,0.0,71,0.00,,,0.00,,2013-05-12 13:52:00,
2013-05-12 09:01:00,50.0,41.0,30.24,NNE,14,0.0,0.0,71,0.00,,,0.00,,2013-05-12 14:01:00,
2013-05-12 09:11:00,50.0,41.0,30.24,NNE,14,0.0,0.0,71,0.00,,,0.00,,2013-05-12 14:11:00,
2013-05-12 09:21:00,55.0,43.0,30.23,ESE,116,0.0,3.0,63,0.00,,,0.00,,2013-05-12 14:21:00,
2013-05-12 09:31:00,55.0,43.0,30.23,ESE,116,0.0,3.0,63,0.00,,,0.00,,2013-05-12 14:31:00,
2013-05-12 09:42:00,59.0,43.0,30.25,ESE,106,0.0,7.0,55,0.00,,,0.00,,2013-05-12 14:42:00,
2013-05-12 09:52:00,59.0,43.0,30.25,ESE,106,0.0,7.0,55,0.00,,,0.00,,2013-05-12 14:52:00,
2013-05-12 10:01:00,59.0,43.0,30.25,ESE,106,0.0,7.0,55,0.00,,,0.00,,2013-05-12 15:01:00,
2013-05-12 10:11:00,59.0,43.0,30.25,ESE,106,0.0,7.0,55,0.00,,,0.00,,2013-05-12 15:11:00,
2013-05-12 10:21:00,61.0,43.0,30.24,ENE,78,0.0,7.0,51,0.00,,,0.00,,2013-05-12 15:21:00,
2013-05-12 10:34:00,61.0,43.0,30.24,ENE,78,0.0,7.0,51,0.00,,,0.00,,2013-05-12 15:34:00,
2013-05-12 10:42:00,61.0,43.0,30.24,ENE,78,0.0,7.0,51,0.00,,,0.00,,2013-05-12 15:42:00,
2013-05-12 10:53:00,63.0,44.0,30.24,ENE,59,1.0,14.0,50,0.00,,,0.00,,2013-05-12 15:53:00,
2013-05-12 11:02:00,63.0,44.0,30.24,ENE,59,1.0,14.0,50,0.00,,,0.00,,2013-05-12 16:02:00,
2013-05-12 11:12:00,63.0,44.0,30.24,ENE,59,1.0,14.0,50,0.00,,,0.00,,2013-05-12 16:12:00,
2013-05-12 11:23:00,64.0,41.0,30.25,East,85,3.0,12.0,43,0.00,,,0.00,,2013-05-12 16:23:00,
2013-05-12 11:32:00,64.0,41.0,30.25,East,85,3.0,12.0,43,0.00,,,0.00,,2013-05-12 16:32:00,
2013-05-12 11:42:00,64.0,41.0,30.25,East,85,3.0,12.0,43,0.00,,,0.00,,2013-05-12 16:42:00,
2013-05-12 11:52:00,65.0,41.0,30.24,ESE,106,1.0,14.0,41,0.00,,,0.00,,2013-05-12 16:52:00,
2013-05-12 12:02:00,65.0,41.0,30.24,ESE,106,1.0,14.0,41,0.00,,,0.00,,2013-05-12 17:02:00,
2013-05-12 12:12:00,65.0,40.0,30.24,SE,133,1.0,13.0,40,0.00,,,0.00,,2013-05-12 17:12:00,
2013-05-12 12:22:00,65.0,40.0,30.24,SE,133,1.0,13.0,40,0.00,,,0.00,,2013-05-12 17:22:00,
2013-05-12 12:32:00,65.0,40.0,30.24,SE,133,1.0,13.0,40,0.00,,,0.00,,2013-05-12 17:32:00,
2013-05-12 12:42:00,66.0,40.0,30.24,ESE,104,0.0,12.0,38,0.00,,,0.00,,2013-05-12 17:42:00,
2013-05-12 12:53:00,66.0,40.0,30.24,ESE,104,0.0,12.0,38,0.00,,,0.00,,2013-05-12 17:53:00,
2013-05-12 13:01:00,66.0,40.0,30.24,ESE,104,0.0,12.0,38,0.00,,,0.00,,2013-05-12 18:01:00,
2013-05-12 13:12:00,66.0,40.0,30.24,ESE,104,0.0,12.0,38,0.00,,,0.00,,2013-05-12 18:12:00,
2013-05-12 13:22:00,66.0,38.0,30.24,East,89,0.0,16.0,36,0.00,,,0.00,,2013-05-12 18:22:00,
2013-05-12 13:32:00,66.0,38.0,30.24,East,89,0.0,16.0,36,0.00,,,0.00,,2013-05-12 18:32:00,
2013-05-12 13:42:00,66.0,38.0,30.24,East,89,0.0,16.0,36,0.00,,,0.00,,2013-05-12 18:42:00,
2013-05-12 13:52:00,64.0,36.0,30.24,ESE,107,0.0,11.0,35,0.00,,,0.00,,2013-05-12 18:52:00,
2013-05-12 14:01:00,64.0,36.0,30.24,ESE,107,0.0,11.0,35,0.00,,,0.00,,2013-05-12 19:01:00,
2013-05-12 14:11:00,64.0,36.0,30.24,ESE,107,0.0,11.0,35,0.00,,,0.00,,2013-05-12 19:11:00,
2013-05-12 14:21:00,67.0,34.0,30.22,ESE,119,3.0,14.0,29,0.00,,,0.00,,2013-05-12 19:21:00,
2013-05-12 14:32:00,67.0,34.0,30.22,ESE,119,3.0,14.0,29,0.00,,,0.00,,2013-05-12 19:32:00,
2013-05-12 14:42:00,69.0,34.0,30.22,SE,141,0.0,14.0,27,0.00,,,0.00,,2013-05-12 19:42:00,
2013-05-12 14:52:00,69.0,34.0,30.22,SE,141,0.0,14.0,27,0.00,,,0.00,,2013-05-12 19:52:00,
2013-05-12 15:02:00,69.0,34.0,30.22,SE,141,0.0,14.0,27,0.00,,,0.00,,2013-05-12 20:02:00,
2013-05-12 15:11:00,70.0,35.0,30.21,SE,134,6.0,12.0,28,0.00,,,0.00,,2013-05-12 20:11:00,
2013-05-12 15:21:00,70.0,35.0,30.21,SE,134,6.0,12.0,28,0.00,,,0.00,,2013-05-12 20:21:00,
2013-05-12 15:32:00,70.0,35.0,30.21,SE,134,6.0,12.0,28,0.00,,,0.00,,2013-05-12 20:32:00,
2013-05-12 15:42:00,70.0,35.0,30.21,SE,134,6.0,12.0,28,0.00,,,0.00,,2013-05-12 20:42:00,
2013-05-12 15:52:00,71.0,35.0,30.20,ESE,109,2.0,11.0,27,0.00,,,0.00,,2013-05-12 20:52:00,
2013-05-12 16:01:00,71.0,35.0,30.20,ESE,109,2.0,11.0,27,0.00,,,0.00,,2013-05-12 21:01:00,
2013-05-12 16:11:00,69.0,35.0,30.17,ESE,119,0.0,12.0,28,0.00,,,0.00,,2013-05-12 21:11:00,
2013-05-12 16:21:00,69.0,35.0,30.17,ESE,119,0.0,12.0,28,0.00,,,0.00,,2013-05-12 21:21:00,
2013-05-12 16:33:00,69.0,35.0,30.17,ESE,119,0.0,12.0,28,0.00,,,0.00,,2013-05-12 21:33:00,
2013-05-12 16:42:00,69.0,35.0,30.17,ESE,119,0.0,12.0,28,0.00,,,0.00,,2013-05-12 21:42:00,
2013-05-12 16:53:00,67.0,35.0,30.16,SSE,150,0.0,11.0,30,0.00,,,0.00,,2013-05-12 21:53:00,
2013-05-12 17:02:00,67.0,35.0,30.16,SSE,150,0.0,11.0,30,0.00,,,0.00,,2013-05-12 22:02:00,
2013-05-12 17:12:00,67.0,35.0,30.16,SSE,150,0.0,11.0,30,0.00,,,0.00,,2013-05-12 22:12:00,
2013-05-12 17:23:00,69.0,35.0,30.16,East,86,0.0,12.0,28,0.00,,,0.00,,2013-05-12 22:23:00,
2013-05-12 17:32:00,69.0,35.0,30.16,East,86,0.0,12.0,28,0.00,,,0.00,,2013-05-12 22:32:00,
2013-05-12 17:42:00,69.0,35.0,30.16,East,86,0.0,12.0,28,0.00,,,0.00,,2013-05-12 22:42:00,
2013-05-12 17:52:00,69.0,35.0,30.15,ESE,103,0.0,13.0,28,0.00,,,0.00,,2013-05-12 22:52:00,
2013-05-12 18:02:00,69.0,35.0,30.15,ESE,103,0.0,13.0,28,0.00,,,0.00,,2013-05-12 23:02:00,
2013-05-12 18:12:00,70.0,34.0,30.13,East,86,5.0,13.0,27,0.00,,,0.00,,2013-05-12 23:12:00,
2013-05-12 18:22:00,70.0,34.0,30.13,East,86,5.0,13.0,27,0.00,,,0.00,,2013-05-12 23:22:00,
2013-05-12 18:32:00,70.0,34.0,30.13,East,86,5.0,13.0,27,0.00,,,0.00,,2013-05-12 23:32:00,
2013-05-12 18:42:00,70.0,34.0,30.13,East,86,5.0,13.0,27,0.00,,,0.00,,2013-05-12 23:42:00,
2013-05-12 18:52:00,69.0,35.0,30.14,East,89,1.0,4.0,28,0.00,,,0.00,,2013-05-12 23:52:00,
2013-05-12 19:01:00,69.0,35.0,30.14,East,89,1.0,4.0,28,0.00,,,0.00,,2013-05-13 00:01:00,
2013-05-12 19:11:00,69.0,35.0,30.14,East,89,1.0,4.0,28,0.00,,,0.00,,2013-05-13 00:11:00,
2013-05-12 19:21:00,68.0,34.0,30.14,SE,128,0.0,7.0,28,0.00,,,0.00,,2013-05-13 00:21:00,
2013-05-12 19:32:00,68.0,34.0,30.14,SE,128,0.0,7.0,28,0.00,,,0.00,,2013-05-13 00:32:00,
2013-05-12 19:42:00,68.0,34.0,30.14,SE,126,0.0,7.0,28,0.00,,,0.00,,2013-05-13 00:42:00,
2013-05-12 19:52:00,68.0,34.0,30.14,SE,126,0.0,7.0,28,0.00,,,0.00,,2013-05-13 00:52:00,
2013-05-12 20:01:00,68.0,34.0,30.14,SE,126,0.0,7.0,28,0.00,,,0.00,,2013-05-13 01:01:00,
2013-05-12 20:11:00,68.0,34.0,30.14,SE,126,0.0,7.0,28,0.00,,,0.00,,2013-05-13 01:11:00,
2013-05-12 20:22:00,66.0,35.0,30.13,East,93,0.0,7.0,32,0.00,,,0.00,,2013-05-13 01:22:00,
2013-05-12 20:31:00,66.0,35.0,30.13,East,93,0.0,7.0,32,0.00,,,0.00,,2013-05-13 01:31:00,
2013-05-12 20:42:00,66.0,35.0,30.13,East,93,0.0,7.0,32,0.00,,,0.00,,2013-05-13 01:42:00,
2013-05-12 20:52:00,63.0,35.0,30.14,SE,134,0.0,5.0,35,0.00,,,0.00,,2013-05-13 01:52:00,
2013-05-12 21:01:00,63.0,35.0,30.14,SE,134,0.0,5.0,35,0.00,,,0.00,,2013-05-13 02:01:00,
2013-05-12 21:11:00,63.0,35.0,30.14,SE,134,0.0,5.0,35,0.00,,,0.00,,2013-05-13 02:11:00,
2013-05-12 21:21:00,61.0,36.0,30.15,ESE,123,2.0,8.0,39,0.00,,,0.00,,2013-05-13 02:21:00,
2013-05-12 21:31:00,61.0,36.0,30.15,ESE,123,2.0,8.0,39,0.00,,,0.00,,2013-05-13 02:31:00,
2013-05-12 21:42:00,61.0,36.0,30.15,ESE,123,2.0,8.0,39,0.00,,,0.00,,2013-05-13 02:42:00,
2013-05-12 21:52:00,60.0,36.0,30.17,ESE,106,0.0,0.0,41,0.00,,,0.00,,2013-05-13 02:52:00,
2013-05-12 22:01:00,60.0,36.0,30.17,ESE,106,0.0,0.0,41,0.00,,,0.00,,2013-05-13 03:01:00,
2013-05-12 22:11:00,60.0,36.0,30.17,ESE,106,0.0,0.0,41,0.00,,,0.00,,2013-05-13 03:11:00,
2013-05-12 22:21:00,59.0,37.0,30.17,SE,124,0.0,0.0,43,0.00,,,0.00,,2013-05-13 03:21:00,
2013-05-12 22:30:00,58.0,37.0,30.18,ESE,112,0.0,0.0,45,0.00,,,0.00,,2013-05-13 03:30:00,
2013-05-12 22:32:00,59.0,37.0,30.17,SE,124,0.0,0.0,43,0.00,,,0.00,,2013-05-13 03:32:00,
2013-05-12 22:42:00,59.0,37.0,30.17,SE,124,0.0,0.0,43,0.00,,,0.00,,2013-05-13 03:42:00,
2013-05-12 22:53:00,58.0,37.0,30.18,ESE,112,0.0,0.0,45,0.00,,,0.00,,2013-05-13 03:53:00,
2013-05-12 23:02:00,58.0,37.0,30.18,ESE,112,0.0,0.0,45,0.00,,,0.00,,2013-05-13 04:02:00,
2013-05-12 23:12:00,58.0,37.0,30.18,ESE,112,0.0,0.0,45,0.00,,,0.00,,2013-05-13 04:12:00,
2013-05-12 23:23:00,58.0,37.0,30.18,ESE,112,0.0,0.0,45,0.00,,,0.00,,2013-05-13 04:23:00,